Terminal Aerodrome Forecast
Issued by NWS

Home | Current Version | Previous Version | Text Only | Print | Product List | Glossary On
Versions: 1 2 3 4 5 6 7 8 9 10 11 12 13 14 15 16 17 18 19
000
FTUS43 KGRR 041142
TAFJXN
TAF
KJXN 041142Z 0412/0512 21008KT P6SM BKN050
     FM041500 28006KT 4SM -RA OVC025
     FM042100 35008G15KT 4SM -RA BR OVC015
     FM050200 01006KT 4SM -RA BR OVC007
     FM050600 01004KT P6SM OVC015
     FM050700 02005KT P6SM OVC025
     FM050800 36007KT P6SM OVC050=

USA.gov is the U.S. government's official web portal to all federal, state and local government web resources and services.